createdAt,value
2019-03-09T00:01:12.020Z,99.90
2019-03-09T00:03:42.885Z,99.90
2019-03-09T00:06:14.147Z,99.90
2019-03-09T00:11:26.746Z,99.90
2019-03-09T00:13:57.618Z,99.90
2019-03-09T00:16:28.349Z,99.90
2019-03-09T00:18:59.406Z,99.90
2019-03-09T00:21:30.288Z,99.90
2019-03-09T00:24:18.453Z,99.90
2019-03-09T00:26:53.563Z,99.90
2019-03-09T00:32:24.248Z,99.90
2019-03-09T00:34:55.393Z,99.90
2019-03-09T00:37:26.597Z,99.90
2019-03-09T00:39:57.659Z,99.90
2019-03-09T00:42:28.821Z,99.90
2019-03-09T00:44:59.935Z,99.90
2019-03-09T00:47:30.663Z,99.90
2019-03-09T00:50:01.807Z,99.90
2019-03-09T00:52:34.176Z,99.90
2019-03-09T00:55:05.927Z,99.90
2019-03-09T00:57:37.015Z,99.90
2019-03-09T01:00:14.544Z,99.90
2019-03-09T01:02:45.696Z,99.90
2019-03-09T01:05:17.439Z,99.90
2019-03-09T01:07:48.455Z,99.90
2019-03-09T01:10:19.884Z,99.90
2019-03-09T01:12:50.836Z,99.90
2019-03-09T01:15:21.849Z,99.90
2019-03-09T01:17:52.705Z,99.90
2019-03-09T01:20:23.858Z,99.90
2019-03-09T01:22:54.933Z,99.90
2019-03-09T01:25:25.966Z,99.90
2019-03-09T01:30:39.746Z,99.90
2019-03-09T01:33:10.702Z,99.90
2019-03-09T01:35:41.621Z,99.90
2019-03-09T01:38:12.401Z,99.90
2019-03-09T01:40:43.768Z,99.90
2019-03-09T01:43:16.996Z,99.90
2019-03-09T01:45:48.013Z,99.90
2019-03-09T01:48:18.932Z,99.90
2019-03-09T01:50:49.641Z,99.90
2019-03-09T01:53:20.255Z,99.90
2019-03-09T01:55:51.021Z,99.90
2019-03-09T01:58:21.999Z,99.90
2019-03-09T02:00:52.692Z,99.90
2019-03-09T02:03:23.228Z,99.90
2019-03-09T02:05:54.150Z,99.90
2019-03-09T02:08:24.854Z,99.90
2019-03-09T02:10:57.184Z,99.90
2019-03-09T02:13:27.999Z,99.90
2019-03-09T02:15:58.887Z,99.90
2019-03-09T02:18:29.665Z,99.90
2019-03-09T02:21:00.667Z,99.90
2019-03-09T02:23:31.327Z,99.90
2019-03-09T02:26:02.158Z,99.90
2019-03-09T02:28:33.056Z,99.90
2019-03-09T02:31:04.039Z,99.90
2019-03-09T02:33:34.949Z,99.90
2019-03-09T02:36:07.095Z,99.90
2019-03-09T02:38:50.237Z,99.90
2019-03-09T02:41:21.246Z,99.90
2019-03-09T02:43:52.302Z,99.90
2019-03-09T02:46:23.265Z,99.90
2019-03-09T02:48:54.404Z,99.90
2019-03-09T02:51:25.521Z,99.90
2019-03-09T02:53:56.559Z,99.90
2019-03-09T02:56:27.755Z,99.90
2019-03-09T02:58:58.671Z,99.90
2019-03-09T03:01:48.800Z,99.90
2019-03-09T03:04:19.963Z,99.90
2019-03-09T03:06:51.137Z,99.90
2019-03-09T03:09:22.404Z,99.90
2019-03-09T03:11:53.388Z,99.90
2019-03-09T03:17:07.235Z,99.90
2019-03-09T03:19:38.204Z,99.90
2019-03-09T03:22:09.590Z,99.90
2019-03-09T03:24:46.024Z,99.90
2019-03-09T03:27:17.511Z,99.90
2019-03-09T03:29:48.874Z,99.90
2019-03-09T03:32:19.875Z,99.90
2019-03-09T03:34:51.256Z,99.90
2019-03-09T03:37:22.401Z,99.90
2019-03-09T03:39:53.475Z,99.90
2019-03-09T03:42:24.819Z,99.90
2019-03-09T03:44:56.012Z,99.90
2019-03-09T03:47:26.992Z,99.90
2019-03-09T03:49:58.056Z,99.90
2019-03-09T03:55:11.281Z,99.90
2019-03-09T03:57:42.089Z,99.90
2019-03-09T04:00:13.465Z,99.90
2019-03-09T04:02:44.166Z,99.90
2019-03-09T04:05:15.587Z,99.90
2019-03-09T04:07:46.655Z,99.90
2019-03-09T04:10:17.699Z,99.90
2019-03-09T04:12:49.556Z,99.90
2019-03-09T04:15:20.624Z,99.90
2019-03-09T04:17:51.949Z,99.90
2019-03-09T04:20:22.889Z,99.90
2019-03-09T04:22:54.101Z,99.90
2019-03-09T04:25:25.287Z,99.90
2019-03-09T04:27:56.401Z,99.90
2019-03-09T04:30:27.410Z,99.90
2019-03-09T04:32:58.418Z,99.90
2019-03-09T04:35:29.580Z,99.90
2019-03-09T04:38:00.819Z,99.90
2019-03-09T04:40:32.198Z,99.90
2019-03-09T04:43:03.648Z,99.90
2019-03-09T04:45:34.548Z,99.90
2019-03-09T04:48:05.843Z,99.90
2019-03-09T04:50:36.732Z,99.90
2019-03-09T04:53:07.740Z,99.90
2019-03-09T04:55:39.880Z,99.90
2019-03-09T04:58:10.919Z,99.90
2019-03-09T05:00:41.932Z,99.90
2019-03-09T05:03:13.328Z,99.90
2019-03-09T05:05:46.076Z,99.90
2019-03-09T05:08:38.311Z,99.90
2019-03-09T05:11:16.082Z,99.90
2019-03-09T05:14:00.369Z,99.90
2019-03-09T05:16:31.697Z,99.90
2019-03-09T05:19:02.614Z,99.90
2019-03-09T05:21:33.892Z,99.90
2019-03-09T05:24:05.046Z,99.90
2019-03-09T05:26:36.204Z,99.90
2019-03-09T05:29:07.434Z,99.90
2019-03-09T05:31:38.758Z,99.90
2019-03-09T05:34:09.608Z,99.90
2019-03-09T05:36:40.563Z,99.90
2019-03-09T05:39:11.671Z,99.90
2019-03-09T05:41:43.506Z,99.90
2019-03-09T05:44:14.773Z,99.90
2019-03-09T05:46:45.581Z,99.90
2019-03-09T05:49:16.346Z,99.90
2019-03-09T05:52:43.423Z,99.90
2019-03-09T05:55:18.838Z,99.90
2019-03-09T05:57:49.992Z,99.90
2019-03-09T06:00:21.108Z,99.90
2019-03-09T06:02:52.279Z,99.90
2019-03-09T06:05:34.760Z,99.90
2019-03-09T06:08:06.103Z,99.90
2019-03-09T06:10:37.711Z,99.90
2019-03-09T06:13:09.343Z,99.90
2019-03-09T06:15:40.656Z,99.90
2019-03-09T06:18:11.750Z,99.90
2019-03-09T06:20:46.913Z,99.90
2019-03-09T06:23:17.984Z,99.90
2019-03-09T06:25:49.415Z,99.90
2019-03-09T06:28:20.523Z,99.90
2019-03-09T06:30:51.633Z,99.90
2019-03-09T06:33:27.155Z,99.90
2019-03-09T06:36:19.563Z,99.90
2019-03-09T06:38:53.479Z,99.90
2019-03-09T06:41:31.651Z,99.90
2019-03-09T06:44:02.909Z,99.90
2019-03-09T06:46:33.632Z,99.90
2019-03-09T06:49:04.549Z,99.90
2019-03-09T06:51:35.399Z,99.90
2019-03-09T06:54:06.838Z,99.90
2019-03-09T06:56:38.100Z,99.90
2019-03-09T06:59:08.844Z,99.90
2019-03-09T07:01:39.690Z,99.90
2019-03-09T07:04:10.695Z,99.90
2019-03-09T07:06:41.850Z,99.90
2019-03-09T07:09:13.031Z,99.90
2019-03-09T07:11:44.139Z,99.90
2019-03-09T07:14:50.976Z,99.90
2019-03-09T07:17:22.054Z,99.90
2019-03-09T07:19:53.099Z,99.90
2019-03-09T07:22:24.204Z,99.90
2019-03-09T07:24:56.205Z,99.90
2019-03-09T07:27:27.216Z,99.90
2019-03-09T07:29:58.007Z,99.90
2019-03-09T07:32:29.078Z,99.90
2019-03-09T07:35:00.347Z,99.90
2019-03-09T07:37:31.295Z,99.90
2019-03-09T07:40:04.555Z,99.90
2019-03-09T07:42:35.537Z,99.90
2019-03-09T07:45:09.664Z,99.90
2019-03-09T07:47:41.914Z,99.90
2019-03-09T07:50:13.528Z,99.90
2019-03-09T07:52:44.789Z,99.90
2019-03-09T07:55:16.299Z,99.90
2019-03-09T07:57:47.643Z,99.90
2019-03-09T08:00:19.883Z,99.90
2019-03-09T08:02:51.291Z,99.90
2019-03-09T08:05:22.259Z,99.90
2019-03-09T08:07:53.308Z,99.90
2019-03-09T08:10:24.760Z,99.90
2019-03-09T08:12:56.269Z,99.90
2019-03-09T08:15:27.656Z,99.90
2019-03-09T08:17:58.911Z,99.90
2019-03-09T08:20:29.914Z,99.90
2019-03-09T08:23:01.010Z,99.90
2019-03-09T08:25:32.199Z,99.90
2019-03-09T08:28:03.483Z,99.90
2019-03-09T08:30:34.633Z,99.90
2019-03-09T08:33:05.661Z,99.90
2019-03-09T08:35:36.629Z,99.90
2019-03-09T08:38:07.745Z,99.90
2019-03-09T08:40:38.711Z,99.90
2019-03-09T08:43:09.591Z,99.90
2019-03-09T08:45:40.786Z,99.90
2019-03-09T08:48:11.699Z,99.90
2019-03-09T08:50:43.176Z,99.90
2019-03-09T08:53:14.067Z,99.90
2019-03-09T08:55:45.288Z,99.90
2019-03-09T08:58:16.360Z,99.90
2019-03-09T09:00:47.403Z,99.90
2019-03-09T09:03:18.567Z,99.90
2019-03-09T09:05:49.663Z,99.90
2019-03-09T09:08:21.442Z,99.90
2019-03-09T09:10:52.960Z,99.90
2019-03-09T09:13:24.133Z,99.90
2019-03-09T09:15:55.363Z,99.90
2019-03-09T09:18:26.112Z,99.90
2019-03-09T09:20:56.903Z,99.90
2019-03-09T09:23:28.059Z,99.90
2019-03-09T09:25:58.719Z,99.90
2019-03-09T09:28:29.686Z,99.90
2019-03-09T09:31:00.481Z,99.90
2019-03-09T09:33:31.126Z,99.90
2019-03-09T09:36:01.939Z,99.90
2019-03-09T09:38:32.500Z,99.90
2019-03-09T09:41:03.075Z,99.90
2019-03-09T09:43:33.641Z,99.90
2019-03-09T09:46:04.440Z,99.90
2019-03-09T09:48:35.472Z,99.90
2019-03-09T09:51:06.270Z,99.90
2019-03-09T09:53:37.091Z,99.90
2019-03-09T09:56:07.989Z,99.90
2019-03-09T09:58:38.837Z,99.90
2019-03-09T10:01:09.387Z,99.90
2019-03-09T10:03:58.913Z,99.90
2019-03-09T10:06:29.392Z,99.90
2019-03-09T10:08:59.964Z,99.90
2019-03-09T10:11:30.448Z,99.90
2019-03-09T10:14:01.023Z,99.90
2019-03-09T10:16:31.775Z,99.90
2019-03-09T10:19:02.359Z,99.90
2019-03-09T10:21:33.127Z,99.90
2019-03-09T10:24:04.047Z,99.90
2019-03-09T10:26:34.652Z,99.90
2019-03-09T10:29:06.359Z,99.90
2019-03-09T10:31:36.902Z,99.90
2019-03-09T10:34:07.484Z,99.90
2019-03-09T10:36:38.224Z,99.90
2019-03-09T10:39:08.857Z,99.90
2019-03-09T10:41:39.644Z,99.90
2019-03-09T10:44:10.109Z,99.90
2019-03-09T10:46:40.759Z,99.90
2019-03-09T10:49:11.321Z,99.90
2019-03-09T10:51:42.028Z,99.90
2019-03-09T10:54:12.592Z,99.90
2019-03-09T10:56:43.578Z,99.90
2019-03-09T10:59:14.431Z,99.90
2019-03-09T11:01:45.443Z,99.90
2019-03-09T11:04:16.103Z,99.90
2019-03-09T11:06:47.007Z,99.90
2019-03-09T11:09:17.577Z,99.90
2019-03-09T11:11:48.144Z,99.90
2019-03-09T11:14:19.108Z,99.90
2019-03-09T11:16:49.627Z,99.90
2019-03-09T11:19:20.321Z,99.90
2019-03-09T11:21:50.987Z,99.90
2019-03-09T11:24:21.513Z,99.90
2019-03-09T11:26:52.345Z,99.90
2019-03-09T11:32:11.780Z,99.90
2019-03-09T11:34:42.556Z,99.90
2019-03-09T11:37:13.077Z,99.90
2019-03-09T11:39:43.644Z,99.90
2019-03-09T11:42:14.113Z,99.90
2019-03-09T11:44:44.652Z,99.90
2019-03-09T11:47:15.404Z,99.90
2019-03-09T11:49:46.396Z,99.90
2019-03-09T11:52:20.501Z,99.90
2019-03-09T11:54:49.154Z,99.90
2019-03-09T11:57:20.304Z,99.90
2019-03-09T11:59:54.137Z,99.90
2019-03-09T12:02:26.312Z,99.90
2019-03-09T12:04:57.484Z,99.90
2019-03-09T12:07:28.191Z,99.90
2019-03-09T12:09:58.753Z,99.90
2019-03-09T12:12:29.315Z,99.90
2019-03-09T12:14:59.915Z,99.90
2019-03-09T12:17:30.518Z,99.90
2019-03-09T12:20:01.027Z,99.90
2019-03-09T12:22:32.633Z,99.90
2019-03-09T12:25:03.211Z,99.90
2019-03-09T12:27:33.797Z,99.90
2019-03-09T12:30:05.991Z,99.90
2019-03-09T12:32:36.600Z,99.90
2019-03-09T12:35:07.357Z,99.90
2019-03-09T12:37:38.042Z,99.90
2019-03-09T12:40:11.016Z,99.90
2019-03-09T12:42:41.608Z,99.90
2019-03-09T12:45:12.451Z,99.90
2019-03-09T12:47:43.060Z,99.90
2019-03-09T12:50:15.768Z,99.90
2019-03-09T12:52:46.630Z,99.90
2019-03-09T12:55:17.350Z,99.90
2019-03-09T12:57:48.520Z,99.90
2019-03-09T13:00:20.439Z,99.90
2019-03-09T13:02:51.901Z,99.90
2019-03-09T13:05:22.770Z,99.90
2019-03-09T13:07:53.696Z,99.90
2019-03-09T13:10:24.371Z,99.90
2019-03-09T13:12:55.333Z,99.50
2019-03-09T13:15:26.233Z,99.30
2019-03-09T13:17:56.759Z,98.40
2019-03-09T13:20:27.383Z,97.50
2019-03-09T13:22:58.339Z,96.50
2019-03-09T13:25:29.400Z,95.30
2019-03-09T13:28:00.163Z,96.40
2019-03-09T13:30:32.033Z,95.80
2019-03-09T13:33:02.613Z,95.80
2019-03-09T13:35:33.313Z,97.70
2019-03-09T13:38:04.352Z,99.90
2019-03-09T13:40:35.504Z,99.90
2019-03-09T13:43:06.107Z,99.90
2019-03-09T13:45:36.660Z,99.90
2019-03-09T13:48:07.410Z,99.90
2019-03-09T13:50:38.645Z,99.90
2019-03-09T13:53:09.584Z,99.90
2019-03-09T13:55:40.220Z,99.90
2019-03-09T13:58:11.135Z,99.90
2019-03-09T14:00:41.713Z,99.90
2019-03-09T14:03:12.510Z,99.90
2019-03-09T14:05:43.065Z,99.90
2019-03-09T14:08:13.691Z,99.90
2019-03-09T14:10:44.195Z,99.90
2019-03-09T14:13:14.864Z,99.90
2019-03-09T14:15:45.672Z,99.90
2019-03-09T14:18:16.253Z,99.90
2019-03-09T14:20:48.406Z,99.90
2019-03-09T14:23:19.504Z,99.90
2019-03-09T14:25:51.126Z,99.90
2019-03-09T14:28:21.911Z,99.90
2019-03-09T14:30:52.564Z,99.90
2019-03-09T14:33:23.251Z,99.90
2019-03-09T14:35:53.785Z,99.90
2019-03-09T14:38:24.446Z,99.70
2019-03-09T14:40:55.044Z,99.70
2019-03-09T14:43:25.567Z,99.60
2019-03-09T14:45:56.094Z,99.90
2019-03-09T14:48:26.661Z,98.50
2019-03-09T14:50:57.221Z,98.70
2019-03-09T14:53:27.819Z,98.90
2019-03-09T14:55:58.455Z,99.90
2019-03-09T14:58:29.048Z,99.90
2019-03-09T15:00:59.680Z,99.90
2019-03-09T15:03:30.313Z,99.90
2019-03-09T15:06:00.945Z,99.90
2019-03-09T15:08:31.519Z,99.90
2019-03-09T15:11:02.127Z,99.90
2019-03-09T15:13:32.756Z,99.90
2019-03-09T15:16:03.243Z,99.90
2019-03-09T15:21:24.527Z,99.90
2019-03-09T15:23:55.069Z,99.90
2019-03-09T15:26:25.603Z,99.90
2019-03-09T15:28:56.219Z,99.90
2019-03-09T15:31:26.825Z,99.90
2019-03-09T15:33:57.548Z,99.90
2019-03-09T15:36:29.223Z,99.90
2019-03-09T15:38:59.792Z,99.90
2019-03-09T15:41:30.385Z,99.90
2019-03-09T15:44:01.059Z,99.90
2019-03-09T15:46:31.723Z,99.90
2019-03-09T15:49:02.281Z,99.90
2019-03-09T15:51:32.887Z,99.90
2019-03-09T15:54:03.580Z,99.90
2019-03-09T15:56:34.183Z,99.90
2019-03-09T15:59:05.724Z,99.90
2019-03-09T16:01:36.893Z,99.90
2019-03-09T16:04:07.622Z,99.90
2019-03-09T16:06:38.567Z,99.90
2019-03-09T16:09:09.363Z,99.90
2019-03-09T16:11:45.102Z,99.90
2019-03-09T16:14:12.641Z,99.90
2019-03-09T16:16:43.600Z,99.90
2019-03-09T16:19:14.318Z,99.90
2019-03-09T16:21:45.407Z,99.90
2019-03-09T16:24:16.003Z,99.90
2019-03-09T16:26:46.840Z,99.90
2019-03-09T16:29:17.459Z,99.90
2019-03-09T16:31:48.625Z,99.90
2019-03-09T16:34:20.456Z,99.90
2019-03-09T16:36:51.306Z,99.90
2019-03-09T16:39:22.055Z,99.90
2019-03-09T16:41:52.638Z,99.90
2019-03-09T16:44:23.257Z,99.90
2019-03-09T16:46:54.133Z,99.90
2019-03-09T16:49:24.663Z,99.90
2019-03-09T16:51:56.707Z,99.90
2019-03-09T16:54:27.339Z,99.90
2019-03-09T16:56:58.067Z,99.90
2019-03-09T16:59:28.763Z,99.90
2019-03-09T17:01:59.839Z,99.90
2019-03-09T17:04:30.641Z,99.90
2019-03-09T17:07:01.228Z,99.90
2019-03-09T17:09:31.905Z,99.90
2019-03-09T17:12:02.497Z,99.90
2019-03-09T17:14:33.103Z,99.90
2019-03-09T17:17:03.864Z,99.90
2019-03-09T17:19:34.527Z,99.90
2019-03-09T17:22:05.832Z,99.90
2019-03-09T17:24:36.518Z,99.90
2019-03-09T17:27:07.232Z,99.90
2019-03-09T17:29:38.094Z,99.90
2019-03-09T17:32:08.643Z,99.90
2019-03-09T17:34:39.215Z,99.90
2019-03-09T17:37:19.697Z,99.90
2019-03-09T17:39:51.941Z,99.90
2019-03-09T17:42:22.461Z,99.90
2019-03-09T17:44:53.093Z,99.90
2019-03-09T17:47:23.860Z,99.90
2019-03-09T17:49:54.640Z,99.90
2019-03-09T17:52:25.260Z,99.90
2019-03-09T17:54:55.899Z,99.90
2019-03-09T17:57:26.506Z,99.90
2019-03-09T17:59:57.174Z,99.90
2019-03-09T18:02:27.773Z,99.90
2019-03-09T18:04:58.409Z,99.90
2019-03-09T18:07:29.016Z,99.90
2019-03-09T18:09:59.648Z,99.90
2019-03-09T18:12:31.180Z,99.90
2019-03-09T18:15:01.854Z,99.90
2019-03-09T18:17:32.606Z,99.90
2019-03-09T18:20:03.127Z,99.90
2019-03-09T18:22:33.769Z,99.90
2019-03-09T18:25:04.437Z,99.90
2019-03-09T18:27:35.085Z,99.90
2019-03-09T18:30:05.857Z,99.90
2019-03-09T18:32:36.493Z,99.90
2019-03-09T18:35:07.666Z,99.90
2019-03-09T18:37:38.291Z,99.90
2019-03-09T18:40:09.410Z,99.90
2019-03-09T18:44:55.020Z,99.90
2019-03-09T18:47:25.629Z,99.90
2019-03-09T18:49:56.198Z,99.90
2019-03-09T18:55:15.385Z,99.90
2019-03-09T18:57:46.119Z,99.90
2019-03-09T19:00:17.766Z,99.90
2019-03-09T19:02:48.380Z,99.90
2019-03-09T19:05:19.108Z,99.90
2019-03-09T19:07:49.846Z,99.90
2019-03-09T19:10:20.480Z,99.90
2019-03-09T19:12:51.445Z,99.90
2019-03-09T19:15:22.294Z,99.90
2019-03-09T19:17:52.938Z,99.90
2019-03-09T19:20:23.689Z,99.90
2019-03-09T19:22:54.709Z,99.90
2019-03-09T19:25:25.351Z,99.90
2019-03-09T19:27:56.281Z,99.90
2019-03-09T19:30:27.007Z,99.90
2019-03-09T19:33:00.710Z,99.90
2019-03-09T19:35:30.492Z,99.90
2019-03-09T19:38:01.381Z,99.90
2019-03-09T19:40:32.303Z,99.90
2019-03-09T19:43:02.985Z,99.90
2019-03-09T19:45:33.646Z,99.90
2019-03-09T19:48:04.336Z,99.90
2019-03-09T19:50:35.373Z,99.90
2019-03-09T19:55:49.339Z,99.90
2019-03-09T19:58:31.806Z,99.90
2019-03-09T20:01:02.603Z,99.90
2019-03-09T20:03:33.528Z,99.90
2019-03-09T20:06:04.883Z,99.90
2019-03-09T20:08:35.852Z,99.90
2019-03-09T20:11:06.895Z,99.90
2019-03-09T20:13:37.691Z,99.90
2019-03-09T20:16:08.381Z,99.90
2019-03-09T20:18:39.219Z,99.90
2019-03-09T20:21:10.356Z,99.90
2019-03-09T20:23:41.187Z,99.90
2019-03-09T20:26:11.964Z,99.90
2019-03-09T20:28:43.766Z,99.90
2019-03-09T20:31:14.833Z,99.90
2019-03-09T20:33:45.831Z,99.90
2019-03-09T20:36:17.363Z,99.90
2019-03-09T20:38:48.387Z,99.90
2019-03-09T20:41:19.315Z,99.90
2019-03-09T20:43:50.171Z,99.90
2019-03-09T20:46:21.016Z,99.90
2019-03-09T20:48:51.771Z,99.90
2019-03-09T20:51:22.795Z,99.90
2019-03-09T20:53:53.831Z,99.90
2019-03-09T20:56:24.664Z,99.90
2019-03-09T20:58:55.608Z,99.90
2019-03-09T21:01:26.311Z,99.90
2019-03-09T21:03:57.297Z,99.90
2019-03-09T21:06:28.011Z,99.90
2019-03-09T21:08:59.132Z,99.90
2019-03-09T21:11:29.963Z,99.90
2019-03-09T21:14:01.132Z,99.90
2019-03-09T21:16:32.023Z,99.90
2019-03-09T21:19:02.924Z,99.90
2019-03-09T21:21:33.737Z,99.90
2019-03-09T21:24:04.772Z,99.90
2019-03-09T21:26:35.623Z,99.90
2019-03-09T21:31:41.292Z,99.90
2019-03-09T21:34:12.627Z,99.90
2019-03-09T21:36:43.547Z,99.90
2019-03-09T21:39:15.476Z,99.90
2019-03-09T21:41:46.331Z,99.90
2019-03-09T21:44:17.354Z,99.90
2019-03-09T21:46:48.111Z,99.90
2019-03-09T21:49:19.072Z,99.90
2019-03-09T21:51:49.768Z,99.90
2019-03-09T21:54:21.081Z,99.90
2019-03-09T21:59:27.093Z,99.90
2019-03-09T22:01:57.745Z,99.90
2019-03-09T22:04:28.321Z,99.90
2019-03-09T22:06:58.976Z,99.90
2019-03-09T22:09:29.617Z,99.90
2019-03-09T22:12:00.318Z,99.90
2019-03-09T22:14:30.898Z,99.90
2019-03-09T22:17:02.486Z,99.90
2019-03-09T22:19:33.080Z,99.90
2019-03-09T22:22:03.669Z,99.90
2019-03-09T22:24:34.170Z,99.90
2019-03-09T22:27:04.760Z,99.90
2019-03-09T22:29:35.244Z,99.90
2019-03-09T22:32:05.779Z,99.90
2019-03-09T22:34:36.418Z,99.90
2019-03-09T22:37:09.498Z,99.90
2019-03-09T22:39:40.896Z,99.90
2019-03-09T22:42:12.121Z,99.90
2019-03-09T22:44:42.872Z,99.90
2019-03-09T22:47:13.958Z,99.90
2019-03-09T22:49:44.933Z,99.90
2019-03-09T22:52:15.468Z,99.90
2019-03-09T22:54:46.239Z,99.90
2019-03-09T22:57:17.180Z,99.90
2019-03-09T22:59:48.262Z,99.90
2019-03-09T23:02:19.097Z,99.90
2019-03-09T23:04:50.248Z,99.90
2019-03-09T23:07:21.232Z,99.90
2019-03-09T23:09:52.465Z,99.90
2019-03-09T23:12:24.195Z,99.90
2019-03-09T23:14:57.293Z,99.90
2019-03-09T23:17:28.596Z,99.90
2019-03-09T23:20:00.372Z,99.90
2019-03-09T23:22:31.932Z,99.90
2019-03-09T23:25:03.043Z,99.90
2019-03-09T23:27:33.740Z,99.90
2019-03-09T23:30:05.057Z,99.90
2019-03-09T23:32:35.845Z,99.90
2019-03-09T23:35:06.471Z,99.90
2019-03-09T23:37:37.075Z,99.90
2019-03-09T23:40:09.106Z,99.90
2019-03-09T23:42:40.448Z,99.90
2019-03-09T23:45:12.588Z,99.90
2019-03-09T23:47:43.806Z,99.90
2019-03-09T23:50:15.356Z,99.90
2019-03-09T23:52:46.047Z,99.90
2019-03-09T23:55:22.355Z,99.90
2019-03-09T23:57:50.270Z,99.90
